Scout — WCZ5277 — position and weather

sailwx.info

Track history (hours):
 
Tides and Currents Weather Stations Pressure Air Temp Water Temp Dewpoint Dewpoint Depression Visibility Wind Speed Wind Dir Waves Ship Positions

Scout

Owner: ERGON MARINE & INDUSTRIAL SUPPLY, VICKSBURG, MS. More information available from US FCC via Universal Licensing System.

Last reported at 2017-Mar-08 22:30 UTC. Time now 2017-Apr-27 14:59 UTC.
Position N 32°20' W 090°54'.
Warning: this ship's position is 49 days out of date.

Length 14 m.

Type: Towing. MMSI: 367402890.

Date/timePositionNaut miles runAvg speedWind from/ knotsBaromVisibWave heightAir tempDewpointWater temp
2017-Mar-08 22:30N 32°20' W 090°54'2 2.2
2017-Mar-08 21:33N 32°22' W 090°53'1 0.7
2017-Mar-08 20:33N 32°22' W 090°53'2 2.2
2017-Mar-08 19:33N 32°20' W 090°54'3 3.0
2017-Mar-08 18:33N 32°23' W 090°53'0 0.3
2017-Mar-08 17:33N 32°23' W 090°53'1 0.6
2017-Mar-08 16:33N 32°23' W 090°53'1 1.2
2017-Mar-08 15:33N 32°23' W 090°54'0 0.5
2017-Mar-08 14:33N 32°23' W 090°53'0 0.1
2017-Mar-08 13:33N 32°23' W 090°53'2 2.4
2017-Mar-08 12:33N 32°21' W 090°53'1 1.3
2017-Mar-08 11:33N 32°20' W 090°54'4 3.6
2017-Mar-08 10:33N 32°23' W 090°53'0 0.0
2017-Mar-08 09:33N 32°23' W 090°53'0 0.0
2017-Mar-08 08:33N 32°23' W 090°53'0 0.0
2017-Mar-08 07:33N 32°23' W 090°53'0 0.0
2017-Mar-08 06:33N 32°23' W 090°53'0 0.0
2017-Mar-08 05:33N 32°23' W 090°53'0 0.0
2017-Mar-08 04:33N 32°23' W 090°53'0 0.0
2017-Mar-08 03:33N 32°23' W 090°53'0 0.0
2017-Mar-08 02:33N 32°23' W 090°53'0 0.2
2017-Mar-08 01:33N 32°23' W 090°53'3 3.4
2017-Mar-08 00:33N 32°20' W 090°54'2 0.9
2017-Mar-07 22:33N 32°22' W 090°53'0 0.1
2017-Mar-07 21:33N 32°22' W 090°53'1 1.4
2017-Mar-07 20:33N 32°23' W 090°53'0 0.4
2017-Mar-07 19:33N 32°23' W 090°53'0 0.0
2017-Mar-07 18:33N 32°23' W 090°53'1 0.6
2017-Mar-07 17:33N 32°23' W 090°53'0 0.0
2017-Mar-07 16:33N 32°23' W 090°53'0 0.0
2017-Mar-07 15:33N 32°23' W 090°53'0 0.0
2017-Mar-07 14:33N 32°23' W 090°53'1 0.6
2017-Mar-07 13:33N 32°23' W 090°53'3 2.5
2017-Mar-07 12:33N 32°21' W 090°53'3 3.0
2017-Mar-07 11:33N 32°18' W 090°55'3 2.7
2017-Mar-07 10:33N 32°20' W 090°54'3 2.7
2017-Mar-07 09:33N 32°23' W 090°53'0 0.0
2017-Mar-07 08:33N 32°23' W 090°53'0 0.0
2017-Mar-07 07:33N 32°23' W 090°53'0 0.0
2017-Mar-07 06:33N 32°23' W 090°53'0 0.0
2017-Mar-07 05:33N 32°23' W 090°53'0 0.4
2017-Mar-07 04:33N 32°23' W 090°53'1 1.4
2017-Mar-07 03:33N 32°22' W 090°53'1 1.1
2017-Mar-07 02:33N 32°23' W 090°53'3 2.9
2017-Mar-07 01:33N 32°21' W 090°55'2 1.6
2017-Mar-07 00:33N 32°20' W 090°54'4 3.7
2017-Mar-06 23:33N 32°23' W 090°53'1 0.6
2017-Mar-06 22:33N 32°23' W 090°54'5 4.6
2017-Mar-06 21:33N 32°19' W 090°55'1 1.2
2017-Mar-06 20:33N 32°20' W 090°54'0 0.0
2017-Mar-06 19:33N 32°20' W 090°54'0 0.0
2017-Mar-06 18:33N 32°20' W 090°54'0 0.0
2017-Mar-06 17:33N 32°20' W 090°54'0 0.0
2017-Mar-06 16:34N 32°20' W 090°54'0 0.0
2017-Mar-06 15:34N 32°20' W 090°54'2 1.6
2017-Mar-06 14:34N 32°21' W 090°55'2 1.9
2017-Mar-06 13:34N 32°21' W 090°57'4 3.9
2017-Mar-06 12:34N 32°22' W 090°53'3 2.9
2017-Mar-06 11:34N 32°19' W 090°54'1 1.0
2017-Mar-06 10:34N 32°18' W 090°55'4 4.0
2017-Mar-06 09:34N 32°22' W 090°53'1 0.6
2017-Mar-06 08:34N 32°22' W 090°53'0 0.0
2017-Mar-06 07:34N 32°22' W 090°53'1 0.5
2017-Mar-06 06:34N 32°23' W 090°53'3 3.4
2017-Mar-06 05:34N 32°20' W 090°54'3 3.0
2017-Mar-06 04:34N 32°21' W 090°57'0 0.1
2017-Mar-06 03:34N 32°21' W 090°57'0 0.1
2017-Mar-06 02:33N 32°21' W 090°57'0 0.0
2017-Mar-06 01:34N 32°21' W 090°57'2 1.7
2017-Mar-06 00:34N 32°21' W 090°55'1 1.2
2017-Mar-05 23:23N 32°20' W 090°54'4 4.3
2017-Mar-05 22:33N 32°23' W 090°54'3 2.8
2017-Mar-05 21:34N 32°20' W 090°54'0 0.0
2017-Mar-05 20:34N 32°20' W 090°54'0 0.1
2017-Mar-05 19:34N 32°21' W 090°54'1 1.3
2017-Mar-05 18:34N 32°22' W 090°53'1 0.7
2017-Mar-05 17:33N 32°22' W 090°53'1 0.9
2017-Mar-05 16:34N 32°23' W 090°53'0 0.3
2017-Mar-05 15:33N 32°23' W 090°53'1 0.7
2017-Mar-05 14:33N 32°22' W 090°53'1 1.1
2017-Mar-05 13:34N 32°21' W 090°53'2 1.8
2017-Mar-05 12:34N 32°20' W 090°54'0 0.0
2017-Mar-04 23:17N 32°20' W 090°54'1 1.1
2017-Mar-04 22:33N 32°20' W 090°54'0 0.4
2017-Mar-04 21:33N 32°21' W 090°53'0 0.1
2017-Mar-04 20:33N 32°21' W 090°53'2 2.4
2017-Mar-04 19:33N 32°23' W 090°53'0 0.0
2017-Mar-04 18:33N 32°23' W 090°53'0 0.0
2017-Mar-04 17:33N 32°23' W 090°53'0 0.0
2017-Mar-04 16:33N 32°23' W 090°53'0 0.0
2017-Mar-04 15:33N 32°23' W 090°53'0 0.0
2017-Mar-04 14:33N 32°23' W 090°53'0 0.2
2017-Mar-04 13:33N 32°23' W 090°53'3 0.9
2017-Mar-04 10:33N 32°21' W 090°54'0 0.0
2017-Mar-04 09:33N 32°21' W 090°54'0 0.0
2017-Mar-04 08:33N 32°21' W 090°54'0 0.0
2017-Mar-04 07:33N 32°21' W 090°54'3 2.6
2017-Mar-04 06:33N 32°23' W 090°55'2 2.0
2017-Mar-04 05:33N 32°22' W 090°53'1 0.5
2017-Mar-04 04:33N 32°22' W 090°53'0 0.0
2017-Mar-04 03:33N 32°22' W 090°53'1 0.8
2017-Mar-04 02:33N 32°23' W 090°53'2 1.6
2017-Mar-04 01:33N 32°24' W 090°55'4 4.1
2017-Mar-04 00:33N 32°20' W 090°54'0 0.4
2017-Mar-03 23:33N 32°20' W 090°54'2 2.4
2017-Mar-03 22:33N 32°22' W 090°53'2 1.7
2017-Mar-03 21:33N 32°21' W 090°53'3 2.7
2017-Mar-03 20:33N 32°18' W 090°55'5 4.5
2017-Mar-03 19:33N 32°22' W 090°53'1 1.2
2017-Mar-03 18:33N 32°23' W 090°53'0 0.0
2017-Mar-03 17:33N 32°23' W 090°53'1 0.5
2017-Mar-03 16:33N 32°23' W 090°54'1 0.2
2017-Mar-03 10:34N 32°23' W 090°53'1 0.5
2017-Mar-03 09:33N 32°23' W 090°53'0 0.0
2017-Mar-03 08:34N 32°23' W 090°53'0 0.0
2017-Mar-03 07:33N 32°23' W 090°53'0 0.0
2017-Mar-03 06:33N 32°23' W 090°53'0 0.0
2017-Mar-03 05:33N 32°23' W 090°53'0 0.4
2017-Mar-03 04:34N 32°23' W 090°53'0 0.0
2017-Mar-03 03:34N 32°23' W 090°53'1 1.1
2017-Mar-03 02:33N 32°22' W 090°53'3 2.5
2017-Mar-03 01:33N 32°20' W 090°54'0 0.1
2017-Mar-02 23:33N 32°20' W 090°54'0 0.0
2017-Mar-02 22:33N 32°20' W 090°54'0 0.0
2017-Mar-02 21:33N 32°20' W 090°54'1 1.1
2017-Mar-02 20:33N 32°21' W 090°53'0 0.0
2017-Mar-02 19:33N 32°21' W 090°53'0 0.0
2017-Mar-02 18:33N 32°21' W 090°53'3 2.5
2017-Mar-02 17:33N 32°23' W 090°53'1 0.9
2017-Mar-02 16:33N 32°22' W 090°53'2 1.9
2017-Mar-02 15:33N 32°23' W 090°55'2 2.4
2017-Mar-02 14:33N 32°22' W 090°53'1 1.2
2017-Mar-02 13:33N 32°23' W 090°53'4 2.7
2017-Mar-02 12:16N 32°20' W 090°54'3 4.9
2017-Mar-02 11:33N 32°23' W 090°55'2 1.9
2017-Mar-02 10:33N 32°22' W 090°53'1 1.4
2017-Mar-02 09:33N 32°23' W 090°54'2 1.8
2017-Mar-02 08:33N 32°22' W 090°53'2 1.6
2017-Mar-02 07:33N 32°23' W 090°53'0 0.0
2017-Mar-02 06:33N 32°23' W 090°53'0 0.0
2017-Mar-02 05:33N 32°23' W 090°53'0 0.0
2017-Mar-02 04:33N 32°23' W 090°53'0 0.0
2017-Mar-02 03:33N 32°23' W 090°53'0 0.0
2017-Mar-02 02:33N 32°23' W 090°53'1 0.9
2017-Mar-02 01:33N 32°23' W 090°53'3 3.0
2017-Mar-02 00:33N 32°20' W 090°54'0 0.3
2017-Mar-01 23:05N 32°20' W 090°54'1 2.1
2017-Mar-01 22:34N 32°21' W 090°53'0 0.0
2017-Mar-01 21:33N 32°21' W 090°53'1 1.1
2017-Mar-01 20:33N 32°20' W 090°54'2 2.1
2017-Mar-01 19:34N 32°18' W 090°55'0 0.0
2017-Mar-01 18:33N 32°18' W 090°55'0 0.0
2017-Mar-01 17:34N 32°18' W 090°55'5 5.5
2017-Mar-01 16:33N 32°23' W 090°53'0 0.5
2017-Mar-01 15:33N 32°23' W 090°53'1 0.6
2017-Mar-01 14:34N 32°23' W 090°54'2 1.8
2017-Mar-01 13:33N 32°22' W 090°53'2 0.9
2017-Mar-01 11:06N 32°20' W 090°54'3 5.9
2017-Mar-01 10:33N 32°23' W 090°52'1 1.0
2017-Mar-01 09:33N 32°23' W 090°53'0 0.0
2017-Mar-01 08:33N 32°23' W 090°53'0 0.0
2017-Mar-01 07:33N 32°23' W 090°53'0 0.0
2017-Mar-01 06:33N 32°23' W 090°53'0 0.0
2017-Mar-01 05:33N 32°23' W 090°53'1 0.6
2017-Mar-01 04:33N 32°23' W 090°53'1 0.7
2017-Mar-01 03:33N 32°22' W 090°53'0 0.5
2017-Mar-01 02:33N 32°23' W 090°52'1 1.4
2017-Mar-01 01:33N 32°23' W 090°54'1 1.3
2017-Mar-01 00:33N 32°22' W 090°53'1 0.5
2017-Feb-28 22:34N 32°21' W 090°53'2 1.7
2017-Feb-28 21:34N 32°23' W 090°53'1 0.8
2017-Feb-28 20:33N 32°22' W 090°53'1 0.8
2017-Feb-28 19:34N 32°23' W 090°53'1 0.6
2017-Feb-28 18:33N 32°23' W 090°53'1 1.3
2017-Feb-28 17:33N 32°22' W 090°53'2 2.1
2017-Feb-28 16:34N 32°20' W 090°54'1 0.7
2017-Feb-28 15:34N 32°20' W 090°54'0 0.0
2017-Feb-28 11:08N 32°20' W 090°54'0 0.0
2017-Feb-28 10:33N 32°20' W 090°54'0 0.0
2017-Feb-28 09:33N 32°20' W 090°54'1 0.6
2017-Feb-28 08:33N 32°19' W 090°54'1 0.6
2017-Feb-28 07:33N 32°20' W 090°54'2 1.6
2017-Feb-28 06:33N 32°18' W 090°55'2 1.6
2017-Feb-28 05:33N 32°20' W 090°54'1 0.9
2017-Feb-28 04:33N 32°19' W 090°55'1 0.9
2017-Feb-28 03:33N 32°20' W 090°54'0 0.0
2017-Feb-28 02:33N 32°20' W 090°54'0 0.0
2017-Feb-28 01:33N 32°20' W 090°54'1 1.3
2017-Feb-28 00:33N 32°19' W 090°55'1 1.3
2017-Feb-27 23:33N 32°20' W 090°54'0 0.0
2017-Feb-27 22:33N 32°20' W 090°54'1 0.5
2017-Feb-27 21:33N 32°19' W 090°54'1 0.5
2017-Feb-27 20:33N 32°20' W 090°54'1 1.3
2017-Feb-27 19:33N 32°19' W 090°55'1 0.5
2017-Feb-27 18:33N 32°18' W 090°55'0 0.2
2017-Feb-27 17:33N 32°18' W 090°55'2 1.7
2017-Feb-27 16:34N 32°20' W 090°54'0 0.0
2017-Feb-27 15:34N 32°20' W 090°54'0 0.0
2017-Feb-27 14:34N 32°20' W 090°54'1 1.4
2017-Feb-27 13:34N 32°18' W 090°55'1 1.4
2017-Feb-27 12:34N 32°20' W 090°54'0 0.0
2017-Feb-27 11:34N 32°20' W 090°54'0 0.0
2017-Feb-27 10:34N 32°20' W 090°54'1 0.9
2017-Feb-27 09:34N 32°19' W 090°54'1 0.9
2017-Feb-27 08:34N 32°20' W 090°54'0 0.0
2017-Feb-27 07:34N 32°20' W 090°54'1 1.2
2017-Feb-27 06:34N 32°19' W 090°55'2 2.2
2017-Feb-27 05:34N 32°17' W 090°56'3 3.4
2017-Feb-27 04:34N 32°20' W 090°54'0 0.0
2017-Feb-27 03:34N 32°20' W 090°54'0 0.0
2017-Feb-27 02:34N 32°20' W 090°54'0 0.0
2017-Feb-27 01:34N 32°20' W 090°54'0 0.0
2017-Feb-26 22:34N 32°20' W 090°54'  
Track history (hours):
 
Tides and Currents Weather Stations Pressure Air Temp Water Temp Dewpoint Dewpoint Depression Visibility Wind Speed Wind Dir Waves Ship Positions

Scout

Owner: ERGON MARINE & INDUSTRIAL SUPPLY, VICKSBURG, MS. More information available from US FCC via Universal Licensing System.

Last reported at 2017-Mar-08 22:30 UTC. Time now 2017-Apr-27 14:59 UTC.
Position N 32°20' W 090°54'.
Warning: this ship's position is 49 days out of date.

Length 14 m.

Type: Towing. MMSI: 367402890.

Date/timePositionNaut miles runAvg speedWind from/ knotsBaromVisibWave heightAir tempDewpointWater temp
2017-Mar-08 22:30N 32°20' W 090°54'2 2.2
2017-Mar-08 21:33N 32°22' W 090°53'1 0.7
2017-Mar-08 20:33N 32°22' W 090°53'2 2.2
2017-Mar-08 19:33N 32°20' W 090°54'3 3.0
2017-Mar-08 18:33N 32°23' W 090°53'0 0.3
2017-Mar-08 17:33N 32°23' W 090°53'1 0.6
2017-Mar-08 16:33N 32°23' W 090°53'1 1.2
2017-Mar-08 15:33N 32°23' W 090°54'0 0.5
2017-Mar-08 14:33N 32°23' W 090°53'0 0.1
2017-Mar-08 13:33N 32°23' W 090°53'2 2.4
2017-Mar-08 12:33N 32°21' W 090°53'1 1.3
2017-Mar-08 11:33N 32°20' W 090°54'4 3.6
2017-Mar-08 10:33N 32°23' W 090°53'0 0.0
2017-Mar-08 09:33N 32°23' W 090°53'0 0.0
2017-Mar-08 08:33N 32°23' W 090°53'0 0.0
2017-Mar-08 07:33N 32°23' W 090°53'0 0.0
2017-Mar-08 06:33N 32°23' W 090°53'0 0.0
2017-Mar-08 05:33N 32°23' W 090°53'0 0.0
2017-Mar-08 04:33N 32°23' W 090°53'0 0.0
2017-Mar-08 03:33N 32°23' W 090°53'0 0.0
2017-Mar-08 02:33N 32°23' W 090°53'0 0.2
2017-Mar-08 01:33N 32°23' W 090°53'3 3.4
2017-Mar-08 00:33N 32°20' W 090°54'2 0.9
2017-Mar-07 22:33N 32°22' W 090°53'0 0.1
2017-Mar-07 21:33N 32°22' W 090°53'1 1.4
2017-Mar-07 20:33N 32°23' W 090°53'0 0.4
2017-Mar-07 19:33N 32°23' W 090°53'0 0.0
2017-Mar-07 18:33N 32°23' W 090°53'1 0.6
2017-Mar-07 17:33N 32°23' W 090°53'0 0.0
2017-Mar-07 16:33N 32°23' W 090°53'0 0.0
2017-Mar-07 15:33N 32°23' W 090°53'0 0.0
2017-Mar-07 14:33N 32°23' W 090°53'1 0.6
2017-Mar-07 13:33N 32°23' W 090°53'3 2.5
2017-Mar-07 12:33N 32°21' W 090°53'3 3.0
2017-Mar-07 11:33N 32°18' W 090°55'3 2.7
2017-Mar-07 10:33N 32°20' W 090°54'3 2.7
2017-Mar-07 09:33N 32°23' W 090°53'0 0.0
2017-Mar-07 08:33N 32°23' W 090°53'0 0.0
2017-Mar-07 07:33N 32°23' W 090°53'0 0.0
2017-Mar-07 06:33N 32°23' W 090°53'0 0.0
2017-Mar-07 05:33N 32°23' W 090°53'0 0.4
2017-Mar-07 04:33N 32°23' W 090°53'1 1.4
2017-Mar-07 03:33N 32°22' W 090°53'1 1.1
2017-Mar-07 02:33N 32°23' W 090°53'3 2.9
2017-Mar-07 01:33N 32°21' W 090°55'2 1.6
2017-Mar-07 00:33N 32°20' W 090°54'4 3.7
2017-Mar-06 23:33N 32°23' W 090°53'1 0.6
2017-Mar-06 22:33N 32°23' W 090°54'5 4.6
2017-Mar-06 21:33N 32°19' W 090°55'1 1.2
2017-Mar-06 20:33N 32°20' W 090°54'0 0.0
2017-Mar-06 19:33N 32°20' W 090°54'0 0.0
2017-Mar-06 18:33N 32°20' W 090°54'0 0.0
2017-Mar-06 17:33N 32°20' W 090°54'0 0.0
2017-Mar-06 16:34N 32°20' W 090°54'0 0.0
2017-Mar-06 15:34N 32°20' W 090°54'2 1.6
2017-Mar-06 14:34N 32°21' W 090°55'2 1.9
2017-Mar-06 13:34N 32°21' W 090°57'4 3.9
2017-Mar-06 12:34N 32°22' W 090°53'3 2.9
2017-Mar-06 11:34N 32°19' W 090°54'1 1.0
2017-Mar-06 10:34N 32°18' W 090°55'4 4.0
2017-Mar-06 09:34N 32°22' W 090°53'1 0.6
2017-Mar-06 08:34N 32°22' W 090°53'0 0.0
2017-Mar-06 07:34N 32°22' W 090°53'1 0.5
2017-Mar-06 06:34N 32°23' W 090°53'3 3.4
2017-Mar-06 05:34N 32°20' W 090°54'3 3.0
2017-Mar-06 04:34N 32°21' W 090°57'0 0.1
2017-Mar-06 03:34N 32°21' W 090°57'0 0.1
2017-Mar-06 02:33N 32°21' W 090°57'0 0.0
2017-Mar-06 01:34N 32°21' W 090°57'2 1.7
2017-Mar-06 00:34N 32°21' W 090°55'1 1.2
2017-Mar-05 23:23N 32°20' W 090°54'4 4.3
2017-Mar-05 22:33N 32°23' W 090°54'3 2.8
2017-Mar-05 21:34N 32°20' W 090°54'0 0.0
2017-Mar-05 20:34N 32°20' W 090°54'0 0.1
2017-Mar-05 19:34N 32°21' W 090°54'1 1.3
2017-Mar-05 18:34N 32°22' W 090°53'1 0.7
2017-Mar-05 17:33N 32°22' W 090°53'1 0.9
2017-Mar-05 16:34N 32°23' W 090°53'0 0.3
2017-Mar-05 15:33N 32°23' W 090°53'1 0.7
2017-Mar-05 14:33N 32°22' W 090°53'1 1.1
2017-Mar-05 13:34N 32°21' W 090°53'2 1.8
2017-Mar-05 12:34N 32°20' W 090°54'0 0.0
2017-Mar-04 23:17N 32°20' W 090°54'1 1.1
2017-Mar-04 22:33N 32°20' W 090°54'0 0.4
2017-Mar-04 21:33N 32°21' W 090°53'0 0.1
2017-Mar-04 20:33N 32°21' W 090°53'2 2.4
2017-Mar-04 19:33N 32°23' W 090°53'0 0.0
2017-Mar-04 18:33N 32°23' W 090°53'0 0.0
2017-Mar-04 17:33N 32°23' W 090°53'0 0.0
2017-Mar-04 16:33N 32°23' W 090°53'0 0.0
2017-Mar-04 15:33N 32°23' W 090°53'0 0.0
2017-Mar-04 14:33N 32°23' W 090°53'0 0.2
2017-Mar-04 13:33N 32°23' W 090°53'3 0.9
2017-Mar-04 10:33N 32°21' W 090°54'0 0.0
2017-Mar-04 09:33N 32°21' W 090°54'0 0.0
2017-Mar-04 08:33N 32°21' W 090°54'0 0.0
2017-Mar-04 07:33N 32°21' W 090°54'3 2.6
2017-Mar-04 06:33N 32°23' W 090°55'2 2.0
2017-Mar-04 05:33N 32°22' W 090°53'1 0.5
2017-Mar-04 04:33N 32°22' W 090°53'0 0.0
2017-Mar-04 03:33N 32°22' W 090°53'1 0.8
2017-Mar-04 02:33N 32°23' W 090°53'2 1.6
2017-Mar-04 01:33N 32°24' W 090°55'4 4.1
2017-Mar-04 00:33N 32°20' W 090°54'0 0.4
2017-Mar-03 23:33N 32°20' W 090°54'2 2.4
2017-Mar-03 22:33N 32°22' W 090°53'2 1.7
2017-Mar-03 21:33N 32°21' W 090°53'3 2.7
2017-Mar-03 20:33N 32°18' W 090°55'5 4.5
2017-Mar-03 19:33N 32°22' W 090°53'1 1.2
2017-Mar-03 18:33N 32°23' W 090°53'0 0.0
2017-Mar-03 17:33N 32°23' W 090°53'1 0.5
2017-Mar-03 16:33N 32°23' W 090°54'1 0.2
2017-Mar-03 10:34N 32°23' W 090°53'1 0.5
2017-Mar-03 09:33N 32°23' W 090°53'0 0.0
2017-Mar-03 08:34N 32°23' W 090°53'0 0.0
2017-Mar-03 07:33N 32°23' W 090°53'0 0.0
2017-Mar-03 06:33N 32°23' W 090°53'0 0.0
2017-Mar-03 05:33N 32°23' W 090°53'0 0.4
2017-Mar-03 04:34N 32°23' W 090°53'0 0.0
2017-Mar-03 03:34N 32°23' W 090°53'1 1.1
2017-Mar-03 02:33N 32°22' W 090°53'3 2.5
2017-Mar-03 01:33N 32°20' W 090°54'0 0.1
2017-Mar-02 23:33N 32°20' W 090°54'0 0.0
2017-Mar-02 22:33N 32°20' W 090°54'0 0.0
2017-Mar-02 21:33N 32°20' W 090°54'1 1.1
2017-Mar-02 20:33N 32°21' W 090°53'0 0.0
2017-Mar-02 19:33N 32°21' W 090°53'0 0.0
2017-Mar-02 18:33N 32°21' W 090°53'3 2.5
2017-Mar-02 17:33N 32°23' W 090°53'1 0.9
2017-Mar-02 16:33N 32°22' W 090°53'2 1.9
2017-Mar-02 15:33N 32°23' W 090°55'2 2.4
2017-Mar-02 14:33N 32°22' W 090°53'1 1.2
2017-Mar-02 13:33N 32°23' W 090°53'4 2.7
2017-Mar-02 12:16N 32°20' W 090°54'3 4.9
2017-Mar-02 11:33N 32°23' W 090°55'2 1.9
2017-Mar-02 10:33N 32°22' W 090°53'1 1.4
2017-Mar-02 09:33N 32°23' W 090°54'2 1.8
2017-Mar-02 08:33N 32°22' W 090°53'2 1.6
2017-Mar-02 07:33N 32°23' W 090°53'0 0.0
2017-Mar-02 06:33N 32°23' W 090°53'0 0.0
2017-Mar-02 05:33N 32°23' W 090°53'0 0.0
2017-Mar-02 04:33N 32°23' W 090°53'0 0.0
2017-Mar-02 03:33N 32°23' W 090°53'0 0.0
2017-Mar-02 02:33N 32°23' W 090°53'1 0.9
2017-Mar-02 01:33N 32°23' W 090°53'3 3.0
2017-Mar-02 00:33N 32°20' W 090°54'0 0.3
2017-Mar-01 23:05N 32°20' W 090°54'1 2.1
2017-Mar-01 22:34N 32°21' W 090°53'0 0.0
2017-Mar-01 21:33N 32°21' W 090°53'1 1.1
2017-Mar-01 20:33N 32°20' W 090°54'2 2.1
2017-Mar-01 19:34N 32°18' W 090°55'0 0.0
2017-Mar-01 18:33N 32°18' W 090°55'0 0.0
2017-Mar-01 17:34N 32°18' W 090°55'5 5.5
2017-Mar-01 16:33N 32°23' W 090°53'0 0.5
2017-Mar-01 15:33N 32°23' W 090°53'1 0.6
2017-Mar-01 14:34N 32°23' W 090°54'2 1.8
2017-Mar-01 13:33N 32°22' W 090°53'2 0.9
2017-Mar-01 11:06N 32°20' W 090°54'3 5.9
2017-Mar-01 10:33N 32°23' W 090°52'1 1.0
2017-Mar-01 09:33N 32°23' W 090°53'0 0.0
2017-Mar-01 08:33N 32°23' W 090°53'0 0.0
2017-Mar-01 07:33N 32°23' W 090°53'0 0.0
2017-Mar-01 06:33N 32°23' W 090°53'0 0.0
2017-Mar-01 05:33N 32°23' W 090°53'1 0.6
2017-Mar-01 04:33N 32°23' W 090°53'1 0.7
2017-Mar-01 03:33N 32°22' W 090°53'0 0.5
2017-Mar-01 02:33N 32°23' W 090°52'1 1.4
2017-Mar-01 01:33N 32°23' W 090°54'1 1.3
2017-Mar-01 00:33N 32°22' W 090°53'1 0.5
2017-Feb-28 22:34N 32°21' W 090°53'2 1.7
2017-Feb-28 21:34N 32°23' W 090°53'1 0.8
2017-Feb-28 20:33N 32°22' W 090°53'1 0.8
2017-Feb-28 19:34N 32°23' W 090°53'1 0.6
2017-Feb-28 18:33N 32°23' W 090°53'1 1.3
2017-Feb-28 17:33N 32°22' W 090°53'2 2.1
2017-Feb-28 16:34N 32°20' W 090°54'1 0.7
2017-Feb-28 15:34N 32°20' W 090°54'0 0.0
2017-Feb-28 11:08N 32°20' W 090°54'0 0.0
2017-Feb-28 10:33N 32°20' W 090°54'0 0.0
2017-Feb-28 09:33N 32°20' W 090°54'1 0.6
2017-Feb-28 08:33N 32°19' W 090°54'1 0.6
2017-Feb-28 07:33N 32°20' W 090°54'2 1.6
2017-Feb-28 06:33N 32°18' W 090°55'2 1.6
2017-Feb-28 05:33N 32°20' W 090°54'1 0.9
2017-Feb-28 04:33N 32°19' W 090°55'1 0.9
2017-Feb-28 03:33N 32°20' W 090°54'0 0.0
2017-Feb-28 02:33N 32°20' W 090°54'0 0.0
2017-Feb-28 01:33N 32°20' W 090°54'1 1.3
2017-Feb-28 00:33N 32°19' W 090°55'1 1.3
2017-Feb-27 23:33N 32°20' W 090°54'0 0.0
2017-Feb-27 22:33N 32°20' W 090°54'1 0.5
2017-Feb-27 21:33N 32°19' W 090°54'1 0.5
2017-Feb-27 20:33N 32°20' W 090°54'1 1.3
2017-Feb-27 19:33N 32°19' W 090°55'1 0.5
2017-Feb-27 18:33N 32°18' W 090°55'0 0.2
2017-Feb-27 17:33N 32°18' W 090°55'2 1.7
2017-Feb-27 16:34N 32°20' W 090°54'0 0.0
2017-Feb-27 15:34N 32°20' W 090°54'0 0.0
2017-Feb-27 14:34N 32°20' W 090°54'1 1.4
2017-Feb-27 13:34N 32°18' W 090°55'1 1.4
2017-Feb-27 12:34N 32°20' W 090°54'0 0.0
2017-Feb-27 11:34N 32°20' W 090°54'0 0.0
2017-Feb-27 10:34N 32°20' W 090°54'1 0.9
2017-Feb-27 09:34N 32°19' W 090°54'1 0.9
2017-Feb-27 08:34N 32°20' W 090°54'0 0.0
2017-Feb-27 07:34N 32°20' W 090°54'1 1.2
2017-Feb-27 06:34N 32°19' W 090°55'2 2.2
2017-Feb-27 05:34N 32°17' W 090°56'3 3.4
2017-Feb-27 04:34N 32°20' W 090°54'0 0.0
2017-Feb-27 03:34N 32°20' W 090°54'0 0.0
2017-Feb-27 02:34N 32°20' W 090°54'0 0.0
2017-Feb-27 01:34N 32°20' W 090°54'0 0.0
2017-Feb-26 22:34N 32°20' W 090°54'  

Dump ship's entire track history